Time;durP1;ratioP1;P1;durP2;ratioP2;P2;SDS_P1;SDS_P2;PMS_P1;PMS_P2;Temp;Humidity;BMP_temperature;BMP_pressure;BME280_temperature;BME280_humidity;BME280_pressure;Samples;Min_cycle;Max_cycle;Signal;HPM_P1;HPM_P2
2022/01/30 00:01:58;;;;;;;2.00;1.90;;;;;;;4.03;100.00;97376.81;4918246;28;20243;-49
2022/01/30 00:04:26;;;;;;;2.00;1.90;;;;;;;4.01;100.00;97385.75;4910305;28;20231;-51
2022/01/30 00:06:54;;;;;;;2.90;2.53;;;;;;;4.04;100.00;97394.19;4931067;28;20636;-50
2022/01/30 00:09:23;;;;;;;2.10;2.00;;;;;;;4.03;100.00;97374.19;4925716;28;20290;-50
2022/01/30 00:11:55;;;;;;;1.70;1.70;;;;;;;4.07;100.00;97373.91;4929678;28;20314;-54
2022/01/30 00:14:27;;;;;;;1.83;1.83;;;;;;;4.06;100.00;97380.94;4894931;28;20365;-52
2022/01/30 00:17:01;;;;;;;2.47;2.37;;;;;;;4.05;100.00;97376.66;4930195;28;20238;-54
2022/01/30 00:19:35;;;;;;;2.07;1.97;;;;;;;4.10;100.00;97378.88;4897307;28;21380;-52
2022/01/30 00:22:15;;;;;;;2.00;1.90;;;;;;;4.17;100.00;97398.31;4928918;28;20234;-54
2022/01/30 00:24:49;;;;;;;2.00;1.90;;;;;;;4.17;100.00;97391.31;4927571;28;20333;-48
2022/01/30 00:27:21;;;;;;;2.03;1.90;;;;;;;4.17;100.00;97391.31;4898979;28;20325;-55
2022/01/30 00:29:52;;;;;;;2.10;2.00;;;;;;;4.26;100.00;97400.13;4926996;28;20234;-47
2022/01/30 00:32:20;;;;;;;2.47;2.27;;;;;;;4.21;100.00;97397.09;4913873;28;20320;-49
2022/01/30 00:35:09;;;;;;;2.10;2.00;;;;;;;4.27;100.00;97387.84;4929241;28;20299;-54
2022/01/30 00:37:41;;;;;;;2.20;2.10;;;;;;;4.25;100.00;97395.03;4919627;28;20227;-52
2022/01/30 00:40:29;;;;;;;2.13;2.03;;;;;;;4.38;100.00;97376.38;4927652;28;20222;-51
2022/01/30 00:42:57;;;;;;;2.10;2.00;;;;;;;4.35;100.00;97377.47;4932954;28;20222;-54
2022/01/30 00:45:28;;;;;;;2.70;2.53;;;;;;;4.39;100.00;97380.66;4886172;28;20639;-52
2022/01/30 00:47:56;;;;;;;2.57;2.37;;;;;;;4.45;100.00;97386.16;4928798;28;20211;-56
2022/01/30 00:50:25;;;;;;;2.37;2.17;;;;;;;4.51;100.00;97390.03;4895336;28;20830;-53
2022/01/30 00:52:55;;;;;;;2.33;2.23;;;;;;;4.57;100.00;97391.25;4914669;28;20268;-53
2022/01/30 00:55:24;;;;;;;1.93;1.83;;;;;;;4.61;100.00;97390.00;4925341;28;20295;-52
2022/01/30 00:57:53;;;;;;;1.93;1.93;;;;;;;4.63;100.00;97398.56;4930171;28;20231;-50
2022/01/30 01:00:22;;;;;;;2.30;2.20;;;;;;;4.61;100.00;97397.88;4880465;28;21111;-47
2022/01/30 01:02:51;;;;;;;1.60;1.60;;;;;;;4.57;100.00;97407.81;4928635;28;20231;-51
2022/01/30 01:05:20;;;;;;;2.30;2.20;;;;;;;4.56;100.00;97405.34;4910960;28;20220;-53
2022/01/30 01:07:50;;;;;;;1.70;1.60;;;;;;;4.53;100.00;97411.69;4916518;28;20837;-47
2022/01/30 01:10:28;;;;;;;1.73;1.70;;;;;;;4.48;100.00;97416.53;4927116;28;20211;-52
2022/01/30 01:13:21;;;;;;;1.63;1.60;;;;;;;4.56;100.00;97408.78;4928865;28;20581;-55
2022/01/30 01:24:12;;;;;;;1.30;1.30;;;;;;;4.59;100.00;97407.69;4921730;28;20333;-48
2022/01/30 01:26:41;;;;;;;2.00;1.80;;;;;;;4.57;100.00;97407.81;4920816;28;20557;-48
2022/01/30 01:29:09;;;;;;;1.80;1.73;;;;;;;4.56;100.00;97403.53;4914745;28;20282;-55
2022/01/30 01:31:37;;;;;;;1.60;1.60;;;;;;;4.61;100.00;97398.69;4909927;28;20314;-52
2022/01/30 01:34:29;;;;;;;2.37;2.17;;;;;;;4.62;100.00;97386.41;4925119;28;20647;-50
2022/01/30 01:36:58;;;;;;;1.97;1.80;;;;;;;4.69;100.00;97384.03;4920824;28;20242;-51
2022/01/30 01:39:26;;;;;;;2.00;1.90;;;;;;;4.59;100.00;97384.88;4912914;28;20603;-51
2022/01/30 01:41:54;;;;;;;2.23;1.97;;;;;;;4.74;100.00;97389.72;4924741;28;20209;-48
2022/01/30 01:44:31;;;;;;;2.07;1.97;;;;;;;4.76;100.00;97399.09;4906885;28;20317;-53
2022/01/30 01:47:00;;;;;;;2.33;2.17;;;;;;;4.78;100.00;97391.91;4890028;28;20232;-48
2022/01/30 01:49:32;;;;;;;2.10;2.00;;;;;;;4.80;100.00;97397.03;4877856;28;20362;-53
2022/01/30 01:52:19;;;;;;;1.80;1.70;;;;;;;4.68;100.00;97395.50;4931780;28;20407;-48
2022/01/30 01:54:49;;;;;;;3.07;2.20;;;;;;;4.70;100.00;97393.56;4924317;28;21000;-48
2022/01/30 01:57:17;;;;;;;2.53;2.10;;;;;;;4.76;100.00;97390.41;4928752;28;20217;-47
2022/01/30 01:59:46;;;;;;;1.93;1.83;;;;;;;4.71;100.00;97414.44;4913187;28;20744;-56
2022/01/30 02:02:14;;;;;;;2.30;1.90;;;;;;;4.73;100.00;97435.28;4931531;28;20448;-50
2022/01/30 02:04:46;;;;;;;1.40;1.40;;;;;;;3.74;100.00;97432.63;4876574;28;20294;-50
2022/01/30 02:10:03;;;;;;;2.37;1.87;;;;;;;3.03;100.00;97441.34;4927436;28;20786;-54
2022/01/30 02:12:39;;;;;;;4.13;2.07;;;;;;;3.00;100.00;97449.44;4924558;28;20620;-53
2022/01/30 02:15:30;;;;;;;3.80;1.57;;;;;;;3.04;100.00;97437.75;4915755;28;20242;-50
2022/01/30 02:26:15;;;;;;;1.77;1.60;;;;;;;3.37;100.00;97417.50;4931743;28;20294;-52
2022/01/30 02:28:44;;;;;;;2.83;2.27;;;;;;;3.41;100.00;97402.34;4925117;28;20208;-53
2022/01/30 02:31:18;;;;;;;4.43;2.47;;;;;;;3.49;100.00;97407.75;4906590;28;20214;-51
2022/01/30 02:33:47;;;;;;;3.53;2.63;;;;;;;3.51;100.00;97405.00;4926055;28;20851;-50
2022/01/30 02:36:15;;;;;;;2.90;2.30;;;;;;;3.52;100.00;97411.88;4887491;28;20339;-50
2022/01/30 02:38:45;;;;;;;2.83;2.60;;;;;;;3.59;100.00;97416.47;4925595;28;20314;-46
2022/01/30 02:41:13;;;;;;;4.60;2.53;;;;;;;3.62;100.00;97415.38;4920096;28;20795;-45
2022/01/30 02:43:54;;;;;;;4.17;2.83;;;;;;;3.67;100.00;97412.34;4927746;28;20218;-49
2022/01/30 02:46:28;;;;;;;6.47;2.90;;;;;;;3.67;100.00;97413.19;4915118;28;20765;-55
2022/01/30 02:49:00;;;;;;;5.77;2.93;;;;;;;3.70;100.00;97414.69;4930487;28;20206;-52
2022/01/30 02:51:34;;;;;;;4.00;2.90;;;;;;;3.66;100.00;97418.53;4885766;28;20211;-49
2022/01/30 02:54:22;;;;;;;2.17;2.07;;;;;;;3.70;100.00;97391.94;4903122;28;20253;-52
2022/01/30 02:56:50;;;;;;;5.10;2.73;;;;;;;3.82;100.00;97404.91;4926046;28;20421;-50
2022/01/30 02:59:19;;;;;;;2.40;2.20;;;;;;;3.84;100.00;97400.38;4932130;28;20801;-50
2022/01/30 03:01:47;;;;;;;4.80;2.77;;;;;;;3.87;100.00;97402.72;4901372;28;20557;-49
2022/01/30 03:04:15;;;;;;;3.10;2.67;;;;;;;3.90;100.00;97416.41;4932007;28;20231;-48
2022/01/30 03:06:43;;;;;;;3.43;2.57;;;;;;;3.96;100.00;97422.06;4882417;28;20222;-50
2022/01/30 03:09:11;;;;;;;2.93;2.60;;;;;;;3.99;100.00;97425.25;4924163;28;20497;-49
2022/01/30 03:11:41;;;;;;;2.93;2.30;;;;;;;4.06;100.00;97407.16;4923999;28;20218;-51
2022/01/30 03:14:09;;;;;;;5.87;2.90;;;;;;;4.13;100.00;97410.88;4924872;28;20247;-50
2022/01/30 03:16:37;;;;;;;3.83;2.70;;;;;;;4.12;100.00;97417.09;4911594;28;20212;-49
2022/01/30 03:19:05;;;;;;;3.17;2.87;;;;;;;4.15;100.00;97426.50;4926841;28;20207;-47
2022/01/30 03:21:33;;;;;;;6.17;2.30;;;;;;;4.16;100.00;97428.97;4885614;28;20791;-53
2022/01/30 03:24:01;;;;;;;3.60;2.60;;;;;;;4.17;100.00;97432.41;4927199;28;20545;-47
2022/01/30 03:26:36;;;;;;;2.67;2.50;;;;;;;4.26;100.00;97434.22;4928319;28;20770;-48
2022/01/30 03:29:06;;;;;;;7.57;3.37;;;;;;;4.32;100.00;97424.97;4925709;28;20213;-53
2022/01/30 03:31:35;;;;;;;5.93;2.73;;;;;;;4.35;100.00;97424.69;4930190;28;20211;-54
2022/01/30 03:34:04;;;;;;;5.00;2.60;;;;;;;4.34;100.00;97402.88;4906098;28;20339;-47
2022/01/30 03:36:32;;;;;;;3.37;2.37;;;;;;;4.39;100.00;97423.44;4927579;28;20200;-52
2022/01/30 03:39:00;;;;;;;2.60;2.37;;;;;;;4.42;100.00;97414.47;4878951;28;20226;-50
2022/01/30 03:41:28;;;;;;;5.37;3.70;;;;;;;4.31;100.00;97423.31;4926875;28;20240;-51
2022/01/30 03:43:56;;;;;;;6.80;2.73;;;;;;;4.13;100.00;97408.25;4930191;28;20227;-46
2022/01/30 03:46:26;;;;;;;5.37;3.10;;;;;;;4.15;100.00;97416.00;4928272;28;20493;-48
2022/01/30 03:49:14;;;;;;;3.23;2.90;;;;;;;3.89;100.00;97413.91;4905215;28;20245;-49
2022/01/30 03:51:42;;;;;;;7.30;3.33;;;;;;;3.75;100.00;97412.47;4928989;28;20665;-50
2022/01/30 03:54:10;;;;;;;6.28;3.33;;;;;;;3.76;100.00;97425.47;4879583;28;20854;-51
2022/01/30 03:56:38;;;;;;;6.50;3.88;;;;;;;3.81;100.00;97445.19;4880654;28;20893;-46
2022/01/30 03:59:06;;;;;;;3.67;2.93;;;;;;;3.73;100.00;97448.50;4929572;28;20213;-52
2022/01/30 04:01:35;;;;;;;2.87;2.67;;;;;;;3.59;100.00;97471.50;4929178;28;20655;-49
2022/01/30 04:04:04;;;;;;;6.77;2.67;;;;;;;3.53;100.00;97447.59;4929101;28;20226;-51
2022/01/30 04:06:33;;;;;;;7.10;3.40;;;;;;;3.40;100.00;97443.44;4926866;28;20339;-46
2022/01/30 04:09:03;;;;;;;7.97;3.00;;;;;;;3.14;100.00;97462.19;4929252;28;20215;-47
2022/01/30 04:11:31;;;;;;;5.10;3.15;;;;;;;3.07;100.00;97466.28;4857832;28;20452;-51
2022/01/30 04:14:00;;;;;;;4.65;3.60;;;;;;;3.04;100.00;97458.69;4927062;28;20840;-48
2022/01/30 04:16:28;;;;;;;3.40;3.20;;;;;;;2.97;100.00;97460.19;4925624;28;20202;-46
2022/01/30 04:18:58;;;;;;;3.23;2.93;;;;;;;2.99;100.00;97468.72;4905149;28;20660;-45
2022/01/30 04:21:27;;;;;;;5.27;2.80;;;;;;;2.87;100.00;97460.97;4923323;28;20576;-46
2022/01/30 04:23:55;;;;;;;3.73;2.97;;;;;;;2.92;100.00;97459.75;4930774;28;20238;-46
2022/01/30 04:26:23;;;;;;;4.63;2.90;;;;;;;2.92;100.00;97464.97;4893182;28;20498;-53
2022/01/30 04:28:51;;;;;;;4.47;2.63;;;;;;;2.99;100.00;97468.72;4926339;28;20207;-47
2022/01/30 04:31:20;;;;;;;3.07;2.80;;;;;;;3.17;100.00;97461.94;4923344;28;20214;-47
2022/01/30 04:33:48;;;;;;;5.20;2.53;;;;;;;3.13;100.00;97463.16;4926226;28;20237;-48
2022/01/30 04:36:23;;;;;;;3.87;2.50;;;;;;;3.21;100.00;97456.44;4928109;28;20234;-46
2022/01/30 04:39:00;;;;;;;3.30;2.63;;;;;;;3.18;100.00;97454.91;4928648;28;20873;-48
2022/01/30 04:41:54;;;;;;;5.37;2.87;;;;;;;3.12;100.00;97448.41;4863401;28;20437;-53
2022/01/30 04:53:05;;;;;;;5.00;2.83;;;;;;;3.25;100.00;97439.53;4890060;29;21322;-48
2022/01/30 04:58:46;;;;;;;4.47;2.60;;;;;;;3.36;100.00;97436.81;4843643;29;20460;-46
2022/01/30 05:01:19;;;;;;;6.85;3.42;;;;;;;3.57;100.00;97457.69;4887804;29;20475;-50
2022/01/30 05:03:57;;;;;;;8.07;3.33;;;;;;;3.58;100.00;97437.53;4864373;29;21266;-49
2022/01/30 05:06:41;;;;;;;3.53;2.80;;;;;;;3.58;100.00;97443.63;4884194;29;20464;-46
2022/01/30 05:09:11;;;;;;;5.40;2.37;;;;;;;3.56;100.00;97439.47;4888211;29;20588;-47
2022/01/30 05:11:39;;;;;;;4.23;3.83;;;;;;;3.54;100.00;97436.16;4888543;29;20742;-47
2022/01/30 05:14:07;;;;;;;4.80;2.57;;;;;;;3.55;100.00;97427.34;4841424;29;20243;-52
2022/01/30 05:16:38;;;;;;;3.00;2.60;;;;;;;3.46;100.00;97432.41;4888773;29;20257;-50
2022/01/30 05:19:06;;;;;;;6.88;3.35;;;;;;;3.44;100.00;97436.97;4889397;29;20459;-47
2022/01/30 05:21:35;;;;;;;4.30;3.60;;;;;;;3.33;100.00;97427.41;4890588;29;20216;-47
2022/01/30 05:24:03;;;;;;;4.60;3.40;;;;;;;3.26;100.00;97467.38;4862116;29;20237;-53
2022/01/30 05:26:33;;;;;;;4.60;3.10;;;;;;;3.13;100.00;97465.78;4906254;28;20203;-53
2022/01/30 05:29:02;;;;;;;5.60;3.30;;;;;;;2.91;100.00;97458.09;4915002;28;20207;-54
2022/01/30 05:31:31;;;;;;;3.50;3.20;;;;;;;2.72;100.00;97477.91;4903627;28;20355;-50
2022/01/30 05:34:00;;;;;;;5.17;2.90;;;;;;;2.63;100.00;97489.16;4928963;28;20235;-52
2022/01/30 05:36:28;;;;;;;5.40;3.00;;;;;;;2.53;100.00;97482.06;4928578;28;20233;-48
2022/01/30 05:38:57;;;;;;;4.60;3.50;;;;;;;2.50;100.00;97487.56;4930645;28;20203;-55
2022/01/30 05:41:26;;;;;;;2.67;2.47;;;;;;;2.37;100.00;97477.25;4927692;28;20207;-46
2022/01/30 05:43:58;;;;;;;5.13;4.00;;;;;;;2.41;100.00;97483.06;4931853;28;20226;-54
2022/01/30 05:46:36;;;;;;;2.90;2.80;;;;;;;2.49;100.00;97475.44;4905385;28;20923;-55
2022/01/30 05:49:05;;;;;;;4.57;3.67;;;;;;;2.43;100.00;97488.97;4933349;28;20222;-50
2022/01/30 05:51:33;;;;;;;4.87;3.33;;;;;;;2.39;100.00;97491.03;4932080;28;20203;-52
2022/01/30 05:54:01;;;;;;;6.20;3.03;;;;;;;2.48;100.00;97501.69;4935947;28;20235;-53
2022/01/30 05:56:28;;;;;;;5.00;3.80;;;;;;;2.55;100.00;97490.63;4928115;28;20938;-48
2022/01/30 05:58:58;;;;;;;4.63;3.03;;;;;;;2.50;100.00;97498.00;4931697;28;21834;-51
2022/01/30 06:01:26;;;;;;;5.97;3.20;;;;;;;2.60;100.00;97501.53;4884789;28;20326;-50
2022/01/30 06:03:54;;;;;;;7.67;3.33;;;;;;;2.60;100.00;97500.69;4862581;28;20239;-55
2022/01/30 06:06:22;;;;;;;5.23;3.13;;;;;;;2.60;100.00;97511.16;4929191;28;20199;-52
2022/01/30 06:08:58;;;;;;;8.93;3.10;;;;;;;2.60;100.00;97513.78;4910874;28;20242;-53
2022/01/30 06:11:26;;;;;;;5.27;2.63;;;;;;;2.67;100.00;97501.88;4897816;28;20217;-55
2022/01/30 06:13:54;;;;;;;10.57;3.03;;;;;;;2.60;100.00;97500.69;4908788;28;20275;-51
2022/01/30 06:16:24;;;;;;;4.23;3.40;;;;;;;2.70;100.00;97511.25;4894676;28;20317;-51
2022/01/30 06:18:52;;;;;;;6.33;3.10;;;;;;;2.70;100.00;97512.06;4889814;28;20214;-52
2022/01/30 06:21:20;;;;;;;6.00;3.07;;;;;;;2.79;100.00;97507.84;4907261;28;20897;-52
2022/01/30 06:23:48;;;;;;;4.93;2.57;;;;;;;2.74;100.00;97510.03;4928991;28;20245;-49
2022/01/30 06:26:16;;;;;;;8.77;2.50;;;;;;;2.82;100.00;97530.34;4907347;28;20854;-51
2022/01/30 06:28:44;;;;;;;3.53;3.23;;;;;;;2.74;100.00;97530.97;4910290;28;20207;-54
2022/01/30 06:31:13;;;;;;;6.70;3.60;;;;;;;2.84;100.00;97533.66;4927440;28;20219;-51
2022/01/30 06:33:42;;;;;;;2.80;2.60;;;;;;;2.96;100.00;97527.41;4929658;28;20313;-51
2022/01/30 06:36:11;;;;;;;3.03;2.70;;;;;;;2.97;100.00;97526.44;4860356;28;20671;-51
2022/01/30 06:38:39;;;;;;;8.40;3.20;;;;;;;2.98;100.00;97527.28;4922728;28;20200;-53
2022/01/30 06:41:07;;;;;;;4.83;3.10;;;;;;;2.99;100.00;97537.63;4908681;28;20203;-51
2022/01/30 06:43:34;;;;;;;4.40;3.13;;;;;;;2.94;100.00;97544.19;4925379;28;21888;-49
2022/01/30 06:46:03;;;;;;;6.73;2.93;;;;;;;3.01;100.00;97550.59;4928322;28;20204;-54
2022/01/30 06:48:32;;;;;;;4.10;2.53;;;;;;;3.11;100.00;97556.72;4927470;28;20208;-52
2022/01/30 06:51:01;;;;;;;5.10;2.37;;;;;;;3.10;100.00;97549.81;4894870;28;20948;-56
2022/01/30 06:53:29;;;;;;;6.53;3.43;;;;;;;3.10;100.00;97551.63;4899543;28;20224;-51
2022/01/30 06:55:57;;;;;;;4.43;2.73;;;;;;;3.11;100.00;97543.63;4903810;28;20247;-56
2022/01/30 06:58:25;;;;;;;5.43;2.60;;;;;;;3.12;100.00;97550.50;4900601;28;20218;-54
2022/01/30 07:00:53;;;;;;;5.73;3.20;;;;;;;3.16;100.00;97545.88;4931249;28;20210;-53
2022/01/30 07:03:21;;;;;;;5.90;2.80;;;;;;;3.08;100.00;97536.03;4921353;28;20231;-50
2022/01/30 07:05:49;;;;;;;7.30;3.37;;;;;;;2.88;100.00;97533.28;4916989;28;20226;-53
2022/01/30 07:08:19;;;;;;;7.87;2.73;;;;;;;2.84;100.00;97544.13;4885577;28;20790;-53
2022/01/30 07:10:47;;;;;;;3.07;2.77;;;;;;;2.81;100.00;97545.19;4912667;28;20221;-49
2022/01/30 07:13:15;;;;;;;6.47;2.73;;;;;;;2.76;100.00;97531.66;4920111;28;20227;-49
2022/01/30 07:15:42;;;;;;;5.83;3.10;;;;;;;2.61;100.00;97536.34;4927725;28;20602;-51
2022/01/30 07:18:11;;;;;;;6.20;2.80;;;;;;;2.53;100.00;97525.69;4929387;28;20656;-54
2022/01/30 07:20:39;;;;;;;3.40;2.60;;;;;;;2.54;100.00;97543.06;4930890;28;20211;-54
2022/01/30 07:23:07;;;;;;;4.90;2.93;;;;;;;2.57;100.00;97537.56;4894930;28;20266;-57
2022/01/30 07:25:36;;;;;;;3.17;2.37;;;;;;;2.55;100.00;97529.00;4927846;28;20214;-47
2022/01/30 07:28:05;;;;;;;2.13;1.93;;;;;;;2.50;100.00;97521.56;4911643;28;20207;-57
2022/01/30 07:30:33;;;;;;;3.77;2.20;;;;;;;2.50;100.00;97531.19;4921366;28;20207;-53
2022/01/30 07:33:01;;;;;;;6.33;2.37;;;;;;;2.53;100.00;97552.69;4923838;28;20222;-48
2022/01/30 07:35:29;;;;;;;8.33;2.47;;;;;;;2.58;100.00;97534.00;4926431;28;20723;-48
2022/01/30 07:37:57;;;;;;;6.03;3.03;;;;;;;2.53;100.00;97531.78;4925807;28;20960;-52
2022/01/30 07:40:25;;;;;;;4.50;2.40;;;;;;;2.59;100.00;97517.34;4879657;28;20330;-56
2022/01/30 07:42:55;;;;;;;5.10;2.43;;;;;;;2.60;100.00;97538.16;4914358;28;20223;-55
2022/01/30 07:45:24;;;;;;;3.53;2.30;;;;;;;2.60;100.00;97547.78;4912888;28;20890;-54
2022/01/30 07:47:52;;;;;;;5.90;2.93;;;;;;;2.67;100.00;97542.88;4930078;28;20290;-52
2022/01/30 07:50:20;;;;;;;4.60;2.63;;;;;;;2.63;100.00;97551.94;4928313;28;20322;-52
2022/01/30 07:52:48;;;;;;;5.73;2.53;;;;;;;2.63;100.00;97554.56;4932330;28;20207;-55
2022/01/30 07:55:17;;;;;;;2.50;2.30;;;;;;;2.70;100.00;97561.78;4881979;28;20227;-47
2022/01/30 07:57:45;;;;;;;4.77;2.70;;;;;;;2.71;100.00;97566.06;4918188;28;20305;-51
2022/01/30 08:00:17;;;;;;;5.70;2.60;;;;;;;2.70;100.00;97563.56;4910653;28;20688;-52
2022/01/30 08:02:45;;;;;;;5.83;2.37;;;;;;;2.87;100.00;97572.66;4928880;28;20243;-60
2022/01/30 08:05:13;;;;;;;4.50;2.50;;;;;;;3.11;100.00;97561.13;4927857;28;20207;-50
2022/01/30 08:07:41;;;;;;;9.43;3.07;;;;;;;3.23;100.00;97572.38;4930305;28;20570;-57
2022/01/30 08:10:09;;;;;;;6.50;2.47;;;;;;;3.20;100.00;97570.84;4834455;28;20219;-50
2022/01/30 08:12:38;;;;;;;3.30;2.50;;;;;;;3.07;100.00;97583.28;4924221;28;20213;-46
2022/01/30 08:15:08;;;;;;;5.50;3.23;;;;;;;2.99;100.00;97571.66;4932262;28;20250;-53
2022/01/30 08:17:38;;;;;;;4.50;2.40;;;;;;;3.08;100.00;97582.34;4931232;28;20294;-52
2022/01/30 08:20:08;;;;;;;5.97;2.30;;;;;;;2.94;100.00;97580.84;4932669;28;20294;-50
2022/01/30 08:22:47;;;;;;;3.00;2.50;;;;;;;2.88;100.00;97583.03;4932230;28;20771;-55
2022/01/30 08:25:15;;;;;;;4.53;2.53;;;;;;;2.94;100.00;97599.19;4888196;28;20222;-56
2022/01/30 08:27:43;;;;;;;9.23;3.33;;;;;;;2.96;100.00;97600.69;4925725;28;20223;-51
2022/01/30 08:30:12;;;;;;;4.77;2.23;;;;;;;2.97;100.00;97602.34;4907779;28;20229;-54
2022/01/30 08:32:42;;;;;;;6.03;2.23;;;;;;;2.92;100.00;97603.72;4932953;28;20232;-50
2022/01/30 08:35:12;;;;;;;3.43;2.43;;;;;;;3.01;100.00;97614.22;4929662;28;20211;-50
2022/01/30 08:37:41;;;;;;;5.60;3.87;;;;;;;3.17;100.00;97624.28;4933633;28;20212;-51
2022/01/30 08:40:12;;;;;;;7.10;3.73;;;;;;;2.94;100.00;97612.25;4901070;28;20211;-56
2022/01/30 08:42:41;;;;;;;5.27;2.37;;;;;;;3.04;100.00;97636.72;4929868;28;20273;-54
2022/01/30 08:45:10;;;;;;;7.57;3.10;;;;;;;3.19;100.00;97634.66;4931022;28;20310;-51
2022/01/30 08:47:40;;;;;;;6.47;3.20;;;;;;;3.32;100.00;97643.13;4933405;28;20691;-53
2022/01/30 08:50:13;;;;;;;2.63;2.23;;;;;;;3.37;100.00;97647.16;4929246;28;20305;-54
2022/01/30 08:52:41;;;;;;;3.13;2.63;;;;;;;3.37;100.00;97647.16;4933741;28;20798;-50
2022/01/30 08:55:10;;;;;;;7.47;3.70;;;;;;;3.36;100.00;97654.22;4925582;28;20306;-52
2022/01/30 08:57:38;;;;;;;6.80;2.73;;;;;;;3.44;100.00;97661.44;4891725;28;20378;-54
2022/01/30 09:00:10;;;;;;;3.93;2.70;;;;;;;3.49;100.00;97680.22;4926461;28;20211;-55
2022/01/30 09:02:38;;;;;;;4.33;2.17;;;;;;;3.64;100.00;97672.88;4933321;28;20754;-52
2022/01/30 09:05:07;;;;;;;6.07;2.83;;;;;;;3.62;100.00;97670.38;4929959;28;20365;-52
2022/01/30 09:07:37;;;;;;;8.93;2.50;;;;;;;3.53;100.00;97686.03;4929037;28;20290;-53
2022/01/30 09:10:07;;;;;;;5.37;2.40;;;;;;;3.72;100.00;97680.09;4931615;28;20215;-51
2022/01/30 09:12:35;;;;;;;5.50;2.40;;;;;;;4.00;100.00;97693.50;4890971;28;20208;-52
2022/01/30 09:15:04;;;;;;;5.83;3.47;;;;;;;3.84;100.00;97675.59;4929837;28;20446;-52
2022/01/30 09:17:32;;;;;;;8.63;3.67;;;;;;;4.10;100.00;97678.63;4932079;28;20747;-54
2022/01/30 09:20:01;;;;;;;2.57;2.37;;;;;;;4.32;100.00;97703.06;4933902;28;20214;-50
2022/01/30 09:22:29;;;;;;;8.07;3.00;;;;;;;4.27;100.00;97716.56;4927205;28;20211;-48
2022/01/30 09:24:58;;;;;;;4.80;2.60;;;;;;;4.00;100.00;97719.72;4933378;28;20237;-50
2022/01/30 09:27:26;;;;;;;2.00;1.80;;;;;;;3.88;100.00;97703.22;4906588;28;20294;-53
2022/01/30 09:29:55;;;;;;;5.93;2.80;;;;;;;3.89;100.00;97710.97;4886584;28;20225;-51
2022/01/30 09:32:23;;;;;;;6.93;3.27;;;;;;;3.98;100.00;97712.00;4920284;28;20648;-53
2022/01/30 09:34:51;;;;;;;6.43;3.23;;;;;;;3.93;100.00;97706.28;4906156;28;20330;-48
2022/01/30 09:37:20;;;;;;;6.20;2.40;;;;;;;3.98;100.00;97722.50;4931383;28;20239;-50
2022/01/30 09:39:48;;;;;;;3.37;2.27;;;;;;;3.84;100.00;97720.19;4916180;28;20473;-50
2022/01/30 09:42:18;;;;;;;5.70;2.53;;;;;;;3.88;100.00;97732.06;4930361;28;20499;-50
2022/01/30 09:44:46;;;;;;;5.23;2.30;;;;;;;3.95;100.00;97722.72;4890523;28;20463;-55
2022/01/30 09:47:16;;;;;;;8.63;3.47;;;;;;;4.07;100.00;97722.66;4916995;28;20731;-49
2022/01/30 09:49:48;;;;;;;8.17;2.43;;;;;;;4.04;100.00;97721.13;4930684;28;20203;-53
2022/01/30 09:52:16;;;;;;;6.82;3.30;;;;;;;4.19;100.00;97730.34;4929246;28;20463;-52
2022/01/30 09:54:44;;;;;;;6.90;2.50;;;;;;;4.35;100.00;97740.34;4925214;28;21142;-54
2022/01/30 09:57:13;;;;;;;4.77;2.33;;;;;;;4.21;100.00;97738.06;4919339;28;21168;-51
2022/01/30 09:59:43;;;;;;;8.27;3.07;;;;;;;4.40;100.00;97732.09;4884878;28;20327;-54
2022/01/30 10:02:12;;;;;;;5.17;3.00;;;;;;;4.26;100.00;97741.13;4913732;28;20239;-54
2022/01/30 10:04:41;;;;;;;4.50;2.93;;;;;;;4.16;100.00;97729.75;4930706;28;20523;-56
2022/01/30 10:07:13;;;;;;;3.77;2.50;;;;;;;4.02;100.00;97721.28;4932364;28;20232;-54
2022/01/30 10:09:46;;;;;;;3.97;2.40;;;;;;;4.20;100.00;97734.63;4914956;28;21048;-52
2022/01/30 10:12:16;;;;;;;6.67;2.97;;;;;;;4.22;100.00;97729.22;4910764;28;20219;-50
2022/01/30 10:14:54;;;;;;;3.00;2.70;;;;;;;4.50;100.00;97737.38;4927056;28;20238;-53
2022/01/30 10:17:27;;;;;;;3.20;2.00;;;;;;;4.53;100.00;97736.25;4883454;28;20250;-53
2022/01/30 10:20:05;;;;;;;3.10;2.57;;;;;;;4.21;100.00;97738.06;4903485;28;20431;-53
2022/01/30 10:22:34;;;;;;;5.93;2.33;;;;;;;4.40;100.00;97729.47;4929969;28;20569;-51
2022/01/30 10:25:03;;;;;;;1.77;1.67;;;;;;;4.22;100.00;97729.22;4900563;28;20235;-53
2022/01/30 10:27:33;;;;;;;3.90;2.00;;;;;;;4.24;100.00;97726.50;4928803;28;20315;-48
2022/01/30 10:30:05;;;;;;;2.87;1.90;;;;;;;4.35;100.00;97721.97;4930835;28;20925;-53
2022/01/30 10:32:33;;;;;;;4.33;2.10;;;;;;;4.55;100.00;97713.38;4888434;28;20225;-51
2022/01/30 10:35:04;;;;;;;4.67;2.17;;;;;;;4.63;100.00;97716.97;4927971;28;20353;-53
2022/01/30 10:37:33;;;;;;;2.40;2.03;;;;;;;4.41;100.00;97709.31;4925622;28;20387;-53
2022/01/30 10:40:08;;;;;;;3.37;1.93;;;;;;;4.31;100.00;97719.75;4911618;28;20235;-55
2022/01/30 10:42:42;;;;;;;3.83;2.70;;;;;;;4.09;100.00;97712.88;4913565;28;20236;-53
2022/01/30 10:45:14;;;;;;;5.17;1.93;;;;;;;4.04;100.00;97708.00;4929892;28;20363;-53
2022/01/30 10:47:44;;;;;;;3.03;2.07;;;;;;;3.87;100.00;97701.56;4885385;28;20219;-52
2022/01/30 10:50:17;;;;;;;2.97;2.10;;;;;;;3.89;100.00;97707.50;4929320;28;20215;-50
2022/01/30 10:52:53;;;;;;;4.00;1.97;;;;;;;3.87;100.00;97707.66;4927600;28;20237;-50
2022/01/30 10:55:39;;;;;;;5.53;2.10;;;;;;;3.86;100.00;97721.72;4912171;28;20217;-53
2022/01/30 10:58:08;;;;;;;3.17;2.13;;;;;;;3.71;100.00;97715.13;4892282;28;20237;-53
2022/01/30 11:00:40;;;;;;;4.80;2.83;;;;;;;3.85;100.00;97708.72;4926704;28;20215;-51
2022/01/30 11:03:09;;;;;;;7.50;2.40;;;;;;;3.91;100.00;97729.19;4840914;28;20900;-50
2022/01/30 11:05:54;;;;;;;5.67;1.40;;;;;;;3.93;100.00;97729.88;4930292;28;20667;-49
2022/01/30 11:08:23;;;;;;;2.13;1.93;;;;;;;3.83;100.00;97731.63;4909043;28;20227;-49
2022/01/30 11:11:10;;;;;;;2.53;1.70;;;;;;;4.05;100.00;97723.63;4913559;28;20253;-49
2022/01/30 11:13:48;;;;;;;7.10;4.20;;;;;;;4.08;100.00;97737.44;4914280;28;20338;-53
2022/01/30 11:19:03;;;;;;;4.30;1.90;;;;;;;4.32;100.00;97734.53;4879304;28;20223;-51
2022/01/30 11:21:32;;;;;;;3.30;2.10;;;;;;;4.41;100.00;97732.94;4931342;28;20788;-48
2022/01/30 11:24:00;;;;;;;5.80;2.73;;;;;;;4.29;100.00;97734.78;4912707;28;20251;-54
2022/01/30 11:26:29;;;;;;;7.03;2.77;;;;;;;4.36;100.00;97728.06;4910992;28;20289;-48
2022/01/30 11:28:58;;;;;;;5.77;1.90;;;;;;;4.31;100.00;97712.69;4910921;28;20684;-47
2022/01/30 11:31:27;;;;;;;5.37;2.30;;;;;;;4.60;100.00;97735.63;4929285;28;20298;-47
2022/01/30 11:33:56;;;;;;;2.90;2.40;;;;;;;4.56;100.00;97741.28;4878741;28;20233;-51
2022/01/30 11:36:24;;;;;;;3.73;2.40;;;;;;;4.44;100.00;97761.53;4926465;28;20294;-50
2022/01/30 11:38:52;;;;;;;3.70;2.53;;;;;;;4.34;100.00;97748.34;4892997;28;20231;-48
2022/01/30 11:41:21;;;;;;;2.47;2.00;;;;;;;4.33;100.00;97747.50;4922494;28;20426;-52
2022/01/30 11:44:25;;;;;;;7.07;2.70;;;;;;;4.56;100.00;97752.59;4896816;28;20257;-49
2022/01/30 11:47:18;;;;;;;7.20;2.27;;;;;;;4.41;100.00;97759.16;4925338;28;20730;-55
2022/01/30 11:49:49;;;;;;;6.03;2.00;;;;;;;4.25;100.00;97759.63;4879568;28;20223;-54
2022/01/30 11:52:19;;;;;;;5.60;2.53;;;;;;;4.19;100.00;97755.72;4930081;28;20210;-53
2022/01/30 11:54:48;;;;;;;2.73;2.03;;;;;;;4.26;100.00;97769.97;4910814;28;20410;-54
2022/01/30 11:57:53;;;;;;;4.47;1.90;;;;;;;3.99;100.00;97754.78;4931731;28;20215;-50
2022/01/30 12:00:39;;;;;;;5.80;2.30;;;;;;;3.99;100.00;97765.25;4910514;28;20305;-51
2022/01/30 12:03:28;;;;;;;2.33;2.20;;;;;;;3.78;100.00;97731.19;4930145;28;20239;-53
2022/01/30 12:05:57;;;;;;;2.50;2.23;;;;;;;3.89;100.00;97746.84;4924878;28;20431;-55
2022/01/30 12:08:45;;;;;;;4.87;2.50;;;;;;;4.14;100.00;97756.09;4925827;28;20660;-56
2022/01/30 12:11:59;;;;;;;3.30;1.87;;;;;;;3.99;100.00;97755.63;4910072;28;20301;-54
2022/01/30 12:14:57;;;;;;;4.30;1.63;;;;;;;4.00;100.00;97733.69;4840507;29;20240;-55
2022/01/30 12:17:59;;;;;;;5.20;2.43;;;;;;;4.39;100.00;97725.16;4870643;29;20245;-52
2022/01/30 12:20:30;;;;;;;3.03;1.77;;;;;;;4.87;100.00;97731.56;4823594;29;20225;-53
2022/01/30 12:22:58;;;;;;;3.13;1.70;;;;;;;4.65;100.00;97724.72;4820200;29;21511;-54
2022/01/30 12:25:38;;;;;;;4.00;1.83;;;;;;;4.71;100.00;97733.84;4841030;29;20335;-57
2022/01/30 12:28:11;;;;;;;3.97;2.50;;;;;;;4.71;100.00;97733.84;4852753;29;20584;-55